Weifang, China
Current Conditions -  °F | °C
As of 10:00 PM on Thursday 30 Oct 2014 (Local Time) from ZSQD Reporting Station
Broken Clouds Broken Clouds  
Wind Chill: 59°   Ceiling: 2000
Heat Index: 59°   Visibility: 6mi
Dew Point: 57°   Wind: 11mph
Humidity: 94%   Direction: 40°NE
Pressure: 30.09"   Gusts: NA
Location:  36.72°N, 119.1°E
Report Text: ZSQD 301400Z 04005MPS 9999 BKN020 15/14 Q1019 NOSIG
Loading
Personal Weather Stations






























Interactive Weather Map
Tropical Storm Tracking
New forecast layout! Learn more

10-Day Weather Forecast

Advertisements
Track Severe Weather on mobile